Time;durP1;ratioP1;P1;durP2;ratioP2;P2;SDS_P1;SDS_P2;PMS_P1;PMS_P2;Temp;Humidity;BMP_temperature;BMP_pressure;BME280_temperature;BME280_humidity;BME280_pressure;Samples;Min_cycle;Max_cycle;Signal;HPM_P1;HPM_P2
2023/10/18 00:01:41;;;;;;;4.15;2.08;;;;;;;;;;5060419;28;20124;-69
2023/10/18 00:04:10;;;;;;;3.75;1.90;;;;;;;;;;5054995;28;20108;-69
2023/10/18 00:06:39;;;;;;;8.50;2.40;;;;;;;;;;5064246;28;20464;-68
2023/10/18 00:11:49;;;;;;;5.82;2.30;;;;;;;;;;5060011;28;20044;-66
2023/10/18 00:14:18;;;;;;;5.80;2.53;;;;;;;;;;5057274;28;20127;-66
2023/10/18 00:16:45;;;;;;;5.63;2.58;;;;;;;;;;5061365;28;20053;-66
2023/10/18 00:19:13;;;;;;;7.03;2.83;;;;;;;;;;5056172;28;20085;-66
2023/10/18 00:21:40;;;;;;;5.07;2.67;;;;;;;;;;5055083;28;20076;-67
2023/10/18 00:24:09;;;;;;;7.45;2.95;;;;;;;;;;5059849;28;20057;-67
2023/10/18 00:26:36;;;;;;;6.30;2.75;;;;;;;;;;5051607;28;20053;-67
2023/10/18 00:29:05;;;;;;;7.10;2.80;;;;;;;;;;5054042;28;20044;-67
2023/10/18 00:31:32;;;;;;;6.78;2.90;;;;;;;;;;5056731;28;20044;-67
2023/10/18 00:33:59;;;;;;;5.43;3.05;;;;;;;;;;5055886;28;20055;-67
2023/10/18 00:36:27;;;;;;;9.00;3.08;;;;;;;;;;5062767;28;20041;-67
2023/10/18 00:38:54;;;;;;;8.73;3.17;;;;;;;;;;5062872;28;20049;-66
2023/10/18 00:41:22;;;;;;;7.82;3.08;;;;;;;;;;5051008;28;20257;-66
2023/10/18 00:43:52;;;;;;;10.55;3.72;;;;;;;;;;5062285;28;20163;-67
2023/10/18 00:46:22;;;;;;;7.40;2.95;;;;;;;;;;5058676;28;20496;-66
2023/10/18 00:48:50;;;;;;;8.35;3.00;;;;;;;;;;5065725;28;20052;-67
2023/10/18 00:51:18;;;;;;;6.85;3.42;;;;;;;;;;5055995;28;20052;-67
2023/10/18 00:53:46;;;;;;;6.88;3.28;;;;;;;;;;5063102;28;20048;-67
2023/10/18 00:56:15;;;;;;;5.72;3.33;;;;;;;;;;5057692;28;20057;-67
2023/10/18 00:58:44;;;;;;;7.80;3.15;;;;;;;;;;5064975;28;20113;-67
2023/10/18 01:01:11;;;;;;;6.30;3.35;;;;;;;;;;5057669;28;20511;-66
2023/10/18 01:03:41;;;;;;;9.02;3.60;;;;;;;;;;5066694;28;20145;-67
2023/10/18 01:06:12;;;;;;;7.22;3.47;;;;;;;;;;5066562;28;20494;-66
2023/10/18 01:08:39;;;;;;;7.85;3.38;;;;;;;;;;5062228;28;20055;-66
2023/10/18 01:11:08;;;;;;;12.23;3.30;;;;;;;;;;5058652;28;20044;-66
2023/10/18 01:13:42;;;;;;;6.53;3.45;;;;;;;;;;5058407;28;20045;-66
2023/10/18 01:16:13;;;;;;;11.85;3.75;;;;;;;;;;5053729;28;20056;-67
2023/10/18 01:18:43;;;;;;;8.68;3.58;;;;;;;;;;5062024;28;20045;-66
2023/10/18 01:21:14;;;;;;;6.35;3.60;;;;;;;;;;5064576;28;20049;-68
2023/10/18 01:23:44;;;;;;;7.00;3.95;;;;;;;;;;5055469;28;20741;-67
2023/10/18 01:26:14;;;;;;;8.48;4.22;;;;;;;;;;5059808;28;20127;-67
2023/10/18 01:28:41;;;;;;;8.15;3.85;;;;;;;;;;5053541;28;20052;-67
2023/10/18 01:31:09;;;;;;;10.80;4.47;;;;;;;;;;5064169;28;20084;-66
2023/10/18 01:33:40;;;;;;;7.63;4.18;;;;;;;;;;5063819;28;20040;-66
2023/10/18 01:36:11;;;;;;;10.40;4.25;;;;;;;;;;5060139;28;20048;-66
2023/10/18 01:38:39;;;;;;;8.93;4.47;;;;;;;;;;5066829;28;20081;-67
2023/10/18 01:41:09;;;;;;;7.22;3.75;;;;;;;;;;5059773;28;20044;-66
2023/10/18 01:43:38;;;;;;;8.65;3.83;;;;;;;;;;5060285;28;20049;-67
2023/10/18 01:46:08;;;;;;;11.13;4.68;;;;;;;;;;5064047;28;20040;-66
2023/10/18 01:48:38;;;;;;;12.18;4.97;;;;;;;;;;5056041;28;20065;-66
2023/10/18 01:51:06;;;;;;;10.57;4.65;;;;;;;;;;5066315;28;20236;-67
2023/10/18 01:53:34;;;;;;;14.90;5.15;;;;;;;;;;5066732;28;20052;-66
2023/10/18 01:56:01;;;;;;;10.43;5.00;;;;;;;;;;5059151;28;20072;-66
2023/10/18 01:58:30;;;;;;;11.60;5.20;;;;;;;;;;5054307;28;20051;-68
2023/10/18 02:01:01;;;;;;;11.13;4.70;;;;;;;;;;5059771;28;20096;-66
2023/10/18 02:03:29;;;;;;;9.63;4.68;;;;;;;;;;5062611;28;20044;-67
2023/10/18 02:05:57;;;;;;;11.75;5.20;;;;;;;;;;5067620;28;20040;-66
2023/10/18 02:08:24;;;;;;;9.13;4.90;;;;;;;;;;5056743;28;20053;-67
2023/10/18 02:10:52;;;;;;;9.50;4.85;;;;;;;;;;5063711;28;20044;-66
2023/10/18 02:13:20;;;;;;;11.73;5.05;;;;;;;;;;5062218;28;20131;-66
2023/10/18 02:15:48;;;;;;;13.02;5.05;;;;;;;;;;5058347;28;20073;-67
2023/10/18 02:18:16;;;;;;;10.32;4.88;;;;;;;;;;5060371;28;20053;-67
2023/10/18 02:20:52;;;;;;;12.85;4.88;;;;;;;;;;5058619;28;20057;-67
2023/10/18 02:23:21;;;;;;;12.82;5.32;;;;;;;;;;5057871;28;20044;-66
2023/10/18 02:25:49;;;;;;;10.13;4.97;;;;;;;;;;5057416;28;20041;-67
2023/10/18 02:28:24;;;;;;;13.60;5.68;;;;;;;;;;5065961;28;20050;-66
2023/10/18 02:30:57;;;;;;;11.07;5.55;;;;;;;;;;5056408;28;20068;-67
2023/10/18 02:33:33;;;;;;;12.93;5.70;;;;;;;;;;5057554;28;20053;-67
2023/10/18 02:36:00;;;;;;;11.35;5.68;;;;;;;;;;5054887;28;20056;-68
2023/10/18 02:38:28;;;;;;;12.38;5.90;;;;;;;;;;5064012;28;20399;-67
2023/10/18 02:40:57;;;;;;;15.75;7.07;;;;;;;;;;5062916;28;20554;-66
2023/10/18 02:43:24;;;;;;;13.90;6.25;;;;;;;;;;5059112;28;20045;-67
2023/10/18 02:45:52;;;;;;;14.27;6.57;;;;;;;;;;5062753;28;20511;-66
2023/10/18 02:48:24;;;;;;;20.58;6.85;;;;;;;;;;5062191;28;20081;-67
2023/10/18 02:50:57;;;;;;;13.95;6.97;;;;;;;;;;5061922;28;20053;-66
2023/10/18 02:53:24;;;;;;;17.33;6.87;;;;;;;;;;5064709;28;20565;-67
2023/10/18 02:55:55;;;;;;;16.00;7.22;;;;;;;;;;5061978;28;20102;-67
2023/10/18 02:58:27;;;;;;;13.55;6.95;;;;;;;;;;5061772;28;20080;-67
2023/10/18 03:00:55;;;;;;;17.50;7.73;;;;;;;;;;5054924;28;20056;-67
2023/10/18 03:03:22;;;;;;;16.98;7.43;;;;;;;;;;5059831;28;20049;-66
2023/10/18 03:05:51;;;;;;;15.57;7.88;;;;;;;;;;5060875;28;20400;-67
2023/10/18 03:08:21;;;;;;;19.67;7.97;;;;;;;;;;5056560;28;20413;-67
2023/10/18 03:10:51;;;;;;;17.77;7.57;;;;;;;;;;5057359;28;20641;-66
2023/10/18 03:13:23;;;;;;;17.80;7.97;;;;;;;;;;5054901;28;20468;-67
2023/10/18 03:16:04;;;;;;;17.45;7.43;;;;;;;;;;5056096;28;20051;-67
2023/10/18 03:18:32;;;;;;;17.67;7.57;;;;;;;;;;5060174;28;20443;-66
2023/10/18 03:21:04;;;;;;;14.60;7.13;;;;;;;;;;5059957;28;20063;-66
2023/10/18 03:23:43;;;;;;;15.30;7.65;;;;;;;;;;5057962;28;20060;-67
2023/10/18 03:26:11;;;;;;;15.25;7.95;;;;;;;;;;5062639;28;20135;-67
2023/10/18 03:28:40;;;;;;;20.58;8.02;;;;;;;;;;5058093;28;20140;-66
2023/10/18 03:34:01;;;;;;;14.65;7.10;;;;;;;;;;5058324;28;20044;-66
2023/10/18 03:36:31;;;;;;;;;;;;;;;;;;5066561;28;20075;-66
2023/10/18 03:39:11;;;;;;;13.68;7.13;;;;;;;;;;5065070;28;19920;-67
2023/10/18 03:41:41;;;;;;;16.02;7.35;;;;;;;;;;5054554;28;20048;-67
2023/10/18 03:44:09;;;;;;;12.98;7.00;;;;;;;;;;5055843;28;20052;-66
2023/10/18 03:46:47;;;;;;;16.50;7.57;;;;;;;;;;5058095;28;20048;-67
2023/10/18 03:49:22;;;;;;;15.27;7.00;;;;;;;;;;5061784;28;20098;-67
2023/10/18 03:51:49;;;;;;;15.27;7.53;;;;;;;;;;5061146;28;20048;-67
2023/10/18 03:54:19;;;;;;;16.48;8.13;;;;;;;;;;5053660;28;20052;-67
2023/10/18 03:56:51;;;;;;;14.82;7.65;;;;;;;;;;5057700;28;20052;-67
2023/10/18 03:59:22;;;;;;;16.93;7.80;;;;;;;;;;5057228;28;20091;-67
2023/10/18 04:02:06;;;;;;;18.23;7.63;;;;;;;;;;5055059;28;20048;-67
2023/10/18 04:04:36;;;;;;;15.35;8.07;;;;;;;;;;5056020;28;20052;-66
2023/10/18 04:07:12;;;;;;;17.02;7.97;;;;;;;;;;5060587;28;20059;-67
2023/10/18 04:09:45;;;;;;;15.40;7.22;;;;;;;;;;5058811;28;20061;-66
2023/10/18 04:12:17;;;;;;;12.68;7.13;;;;;;;;;;5057579;28;20060;-67
2023/10/18 04:14:50;;;;;;;13.23;7.18;;;;;;;;;;5061368;28;20102;-67
2023/10/18 04:17:20;;;;;;;16.10;7.90;;;;;;;;;;5059699;28;20051;-67
2023/10/18 04:19:48;;;;;;;21.40;7.90;;;;;;;;;;5061504;28;20056;-66
2023/10/18 04:22:17;;;;;;;16.35;8.35;;;;;;;;;;5057008;28;20488;-67
2023/10/18 04:24:46;;;;;;;15.55;7.60;;;;;;;;;;5060984;28;20158;-67
2023/10/18 04:27:14;;;;;;;19.58;7.95;;;;;;;;;;5057426;28;20049;-67
2023/10/18 04:29:41;;;;;;;16.15;7.88;;;;;;;;;;5058084;28;20440;-67
2023/10/18 04:32:17;;;;;;;20.75;7.88;;;;;;;;;;5064330;28;20121;-67
2023/10/18 04:34:46;;;;;;;16.23;7.95;;;;;;;;;;5064009;28;20041;-67
2023/10/18 04:37:14;;;;;;;13.70;7.47;;;;;;;;;;5058390;28;20091;-68
2023/10/18 04:39:41;;;;;;;16.38;7.72;;;;;;;;;;5060703;28;20049;-66
2023/10/18 04:42:16;;;;;;;18.23;8.43;;;;;;;;;;5065897;28;20049;-66
2023/10/18 04:44:48;;;;;;;20.55;7.97;;;;;;;;;;5064290;28;20083;-67
2023/10/18 04:47:15;;;;;;;16.40;8.13;;;;;;;;;;5062162;28;20071;-66
2023/10/18 04:49:50;;;;;;;16.58;8.80;;;;;;;;;;5060925;28;20412;-67
2023/10/18 04:52:28;;;;;;;16.45;8.50;;;;;;;;;;5056490;28;20381;-67
2023/10/18 04:55:00;;;;;;;16.15;8.77;;;;;;;;;;5065220;28;20055;-67
2023/10/18 04:57:29;;;;;;;16.88;8.50;;;;;;;;;;5057665;28;20377;-66
2023/10/18 04:59:59;;;;;;;18.30;8.10;;;;;;;;;;5063557;28;20123;-66
2023/10/18 05:02:29;;;;;;;17.77;8.90;;;;;;;;;;5063187;28;20040;-67
2023/10/18 05:04:57;;;;;;;19.77;8.82;;;;;;;;;;5063795;28;20060;-66
2023/10/18 05:07:40;;;;;;;20.92;10.13;;;;;;;;;;5057578;28;20582;-67
2023/10/18 05:10:14;;;;;;;18.75;9.38;;;;;;;;;;5060996;28;20049;-67
2023/10/18 05:12:48;;;;;;;23.05;10.18;;;;;;;;;;5063805;28;20399;-66
2023/10/18 05:15:21;;;;;;;20.58;9.18;;;;;;;;;;5056431;28;20527;-66
2023/10/18 05:17:50;;;;;;;19.60;9.32;;;;;;;;;;5062131;28;20051;-67
2023/10/18 05:20:25;;;;;;;22.10;9.98;;;;;;;;;;5064378;28;20059;-67
2023/10/18 05:22:58;;;;;;;24.20;10.13;;;;;;;;;;5062739;28;20049;-67
2023/10/18 05:25:35;;;;;;;19.08;9.50;;;;;;;;;;5065443;28;20056;-67
2023/10/18 05:28:15;;;;;;;18.98;9.75;;;;;;;;;;5062062;28;20052;-67
2023/10/18 05:36:29;;;;;;;18.23;9.27;;;;;;;;;;5061173;28;20420;-67
2023/10/18 05:39:05;;;;;;;20.42;10.38;;;;;;;;;;5064085;28;20396;-66
2023/10/18 05:41:45;;;;;;;21.02;9.77;;;;;;;;;;5061938;28;20044;-67
2023/10/18 05:44:14;;;;;;;23.23;9.93;;;;;;;;;;5067671;28;20049;-67
2023/10/18 05:46:41;;;;;;;21.00;10.15;;;;;;;;;;5065942;28;20054;-67
2023/10/18 05:49:15;;;;;;;22.25;9.73;;;;;;;;;;5058824;28;20125;-66
2023/10/18 05:51:52;;;;;;;19.23;10.05;;;;;;;;;;5065373;28;20493;-67
2023/10/18 05:54:21;;;;;;;21.35;10.60;;;;;;;;;;5063467;28;20053;-67
2023/10/18 05:56:49;;;;;;;19.45;9.40;;;;;;;;;;5064718;28;20037;-66
2023/10/18 05:59:34;;;;;;;20.70;10.10;;;;;;;;;;5057761;28;20052;-66
2023/10/18 06:02:09;;;;;;;22.20;10.30;;;;;;;;;;5055660;28;20057;-66
2023/10/18 06:04:42;;;;;;;23.05;10.55;;;;;;;;;;5060608;28;20866;-66
2023/10/18 06:07:10;;;;;;;20.10;10.68;;;;;;;;;;5058712;28;20036;-67
2023/10/18 06:09:46;;;;;;;20.55;10.52;;;;;;;;;;5062483;28;20041;-67
2023/10/18 06:12:15;;;;;;;20.92;10.98;;;;;;;;;;5059293;28;20124;-67
2023/10/18 06:14:45;;;;;;;19.50;11.00;;;;;;;;;;5066949;28;20051;-67
2023/10/18 06:17:19;;;;;;;22.95;10.45;;;;;;;;;;5059829;28;20099;-67
2023/10/18 06:19:50;;;;;;;19.40;10.57;;;;;;;;;;5064071;28;20097;-66
2023/10/18 06:22:27;;;;;;;21.73;10.70;;;;;;;;;;5064876;28;20534;-66
2023/10/18 06:24:55;;;;;;;23.27;10.48;;;;;;;;;;5063392;28;20048;-67
2023/10/18 06:27:23;;;;;;;21.30;10.40;;;;;;;;;;5061508;28;20041;-67
2023/10/18 06:29:53;;;;;;;19.63;10.13;;;;;;;;;;5061365;28;20060;-66
2023/10/18 06:32:24;;;;;;;20.55;10.27;;;;;;;;;;5060023;28;20128;-67
2023/10/18 06:34:57;;;;;;;21.50;10.30;;;;;;;;;;5059930;28;20045;-67
2023/10/18 06:37:24;;;;;;;21.08;11.13;;;;;;;;;;5064251;28;20128;-67
2023/10/18 06:39:54;;;;;;;22.00;10.77;;;;;;;;;;5063473;28;20091;-67
2023/10/18 06:42:26;;;;;;;19.50;10.27;;;;;;;;;;5064837;28;20547;-66
2023/10/18 06:44:55;;;;;;;24.00;11.20;;;;;;;;;;5063239;28;20048;-67
2023/10/18 06:47:30;;;;;;;25.55;11.57;;;;;;;;;;5057332;28;20049;-66
2023/10/18 06:50:04;;;;;;;22.70;11.30;;;;;;;;;;5059467;28;20048;-67
2023/10/18 06:52:44;;;;;;;21.02;11.32;;;;;;;;;;5055350;28;20471;-67
2023/10/18 06:55:15;;;;;;;21.27;10.70;;;;;;;;;;5065040;28;20052;-67
2023/10/18 06:57:45;;;;;;;20.92;10.82;;;;;;;;;;5063666;28;20037;-67
2023/10/18 07:00:16;;;;;;;21.98;11.10;;;;;;;;;;5062920;28;20102;-66
2023/10/18 07:02:44;;;;;;;18.13;10.65;;;;;;;;;;5058904;28;20083;-67
2023/10/18 07:05:11;;;;;;;19.55;10.68;;;;;;;;;;5069105;28;20381;-66
2023/10/18 07:07:39;;;;;;;25.48;10.65;;;;;;;;;;5053414;28;20432;-66
2023/10/18 07:10:19;;;;;;;22.75;10.85;;;;;;;;;;5065882;28;20154;-67
2023/10/18 07:12:51;;;;;;;21.08;11.10;;;;;;;;;;5062735;28;20079;-66
2023/10/18 07:15:22;;;;;;;24.35;10.70;;;;;;;;;;5058897;28;21350;-66
2023/10/18 07:17:52;;;;;;;22.13;10.98;;;;;;;;;;5059283;28;20037;-67
2023/10/18 07:20:21;;;;;;;20.13;10.73;;;;;;;;;;5052227;28;20063;-67
2023/10/18 07:22:54;;;;;;;21.23;10.95;;;;;;;;;;5057863;28;20063;-66
2023/10/18 07:25:26;;;;;;;20.95;9.95;;;;;;;;;;5061131;28;20051;-67
2023/10/18 07:27:55;;;;;;;22.13;9.82;;;;;;;;;;5055403;28;20045;-66
2023/10/18 07:30:37;;;;;;;19.70;10.07;;;;;;;;;;5062556;28;20107;-67
2023/10/18 07:33:09;;;;;;;18.85;10.80;;;;;;;;;;5056576;28;20059;-67
2023/10/18 07:35:36;;;;;;;19.10;10.10;;;;;;;;;;5063126;28;20129;-67
2023/10/18 07:38:04;;;;;;;21.73;10.65;;;;;;;;;;5063688;28;20076;-67
2023/10/18 07:40:35;;;;;;;18.83;10.18;;;;;;;;;;5060682;28;20059;-66
2023/10/18 07:43:05;;;;;;;18.45;10.20;;;;;;;;;;5056536;28;20063;-66
2023/10/18 07:45:33;;;;;;;17.30;9.55;;;;;;;;;;5055046;28;20048;-67
2023/10/18 07:48:05;;;;;;;23.20;9.40;;;;;;;;;;5056177;28;20044;-67
2023/10/18 07:50:41;;;;;;;19.23;9.20;;;;;;;;;;5055875;28;20052;-67
2023/10/18 07:53:11;;;;;;;21.05;10.38;;;;;;;;;;5061321;28;20063;-67
2023/10/18 07:55:41;;;;;;;19.95;10.07;;;;;;;;;;5054284;28;20049;-67
2023/10/18 07:58:21;;;;;;;19.58;9.75;;;;;;;;;;5063857;28;20040;-67
2023/10/18 08:01:09;;;;;;;19.60;10.00;;;;;;;;;;5050563;28;20053;-67
2023/10/18 08:03:38;;;;;;;19.00;9.38;;;;;;;;;;5058645;28;20052;-67
2023/10/18 08:06:15;;;;;;;20.50;9.30;;;;;;;;;;5061721;28;20048;-67
2023/10/18 08:08:43;;;;;;;22.77;9.73;;;;;;;;;;5056250;28;20052;-66
2023/10/18 08:11:13;;;;;;;16.63;9.45;;;;;;;;;;5061506;28;20052;-66
2023/10/18 08:13:46;;;;;;;19.92;9.13;;;;;;;;;;5055952;28;20135;-67
2023/10/18 08:16:20;;;;;;;15.52;8.20;;;;;;;;;;5055470;28;20068;-67
2023/10/18 08:18:53;;;;;;;16.70;8.95;;;;;;;;;;5060299;28;20048;-67
2023/10/18 08:21:36;;;;;;;19.02;9.27;;;;;;;;;;5061123;28;20471;-67
2023/10/18 08:24:08;;;;;;;17.40;8.70;;;;;;;;;;5057457;28;20056;-67
2023/10/18 08:26:46;;;;;;;17.25;8.60;;;;;;;;;;5058965;28;20794;-67
2023/10/18 08:29:13;;;;;;;16.00;9.13;;;;;;;;;;5060955;28;20079;-67
2023/10/18 08:31:48;;;;;;;14.25;8.63;;;;;;;;;;5056137;28;20044;-67
2023/10/18 08:34:16;;;;;;;14.63;8.10;;;;;;;;;;5057024;28;20052;-66
2023/10/18 08:36:44;;;;;;;16.88;8.85;;;;;;;;;;5057790;28;20399;-66
2023/10/18 08:39:13;;;;;;;17.88;9.02;;;;;;;;;;5061229;28;20056;-67
2023/10/18 08:41:49;;;;;;;19.30;8.25;;;;;;;;;;5065065;28;20052;-67
2023/10/18 08:44:21;;;;;;;16.55;8.65;;;;;;;;;;5058508;28;20404;-66
2023/10/18 08:46:55;;;;;;;14.70;7.97;;;;;;;;;;5051942;28;20049;-66
2023/10/18 08:49:23;;;;;;;16.75;8.55;;;;;;;;;;5052219;28;20148;-66
2023/10/18 08:52:04;;;;;;;15.82;8.48;;;;;;;;;;5061172;28;20052;-66
2023/10/18 08:54:32;;;;;;;16.73;8.25;;;;;;;;;;5058352;28;20127;-67
2023/10/18 08:57:06;;;;;;;14.70;7.82;;;;;;;;;;5057929;28;20056;-66
2023/10/18 08:59:42;;;;;;;12.90;7.35;;;;;;;;;;5057580;28;20052;-67
2023/10/18 09:02:12;;;;;;;13.10;7.82;;;;;;;;;;5055746;28;20064;-66
2023/10/18 09:04:44;;;;;;;12.52;6.82;;;;;;;;;;5065864;28;20055;-67
2023/10/18 09:07:18;;;;;;;15.57;8.05;;;;;;;;;;5061990;28;20145;-66
2023/10/18 09:09:53;;;;;;;13.75;7.70;;;;;;;;;;5062088;28;20712;-67
2023/10/18 09:12:31;;;;;;;13.05;6.55;;;;;;;;;;5061954;28;20136;-66
2023/10/18 09:14:59;;;;;;;12.57;6.93;;;;;;;;;;5062690;28;20395;-66
2023/10/18 09:17:27;;;;;;;11.10;6.38;;;;;;;;;;5057004;28;20045;-67
2023/10/18 09:20:15;;;;;;;10.50;6.13;;;;;;;;;;5062118;28;20511;-67
2023/10/18 09:22:45;;;;;;;12.45;7.05;;;;;;;;;;5061230;28;20079;-67
2023/10/18 09:25:13;;;;;;;13.32;6.80;;;;;;;;;;5064235;28;20060;-67
2023/10/18 09:27:40;;;;;;;10.00;6.18;;;;;;;;;;5062529;28;20086;-66
2023/10/18 09:30:10;;;;;;;12.43;6.50;;;;;;;;;;5065191;28;20052;-66
2023/10/18 09:32:40;;;;;;;10.10;5.85;;;;;;;;;;5061876;28;20094;-68
2023/10/18 09:35:08;;;;;;;13.80;6.07;;;;;;;;;;5063922;28;20384;-66
2023/10/18 09:37:36;;;;;;;12.07;5.80;;;;;;;;;;5064487;28;20053;-66
2023/10/18 09:40:04;;;;;;;13.02;6.40;;;;;;;;;;5063631;28;20049;-66
2023/10/18 09:42:31;;;;;;;11.02;6.18;;;;;;;;;;5062155;28;20041;-66
2023/10/18 09:44:59;;;;;;;12.68;6.40;;;;;;;;;;5059719;28;20056;-67
2023/10/18 09:47:28;;;;;;;10.52;5.82;;;;;;;;;;5063838;28;20049;-66
2023/10/18 09:49:57;;;;;;;11.55;5.65;;;;;;;;;;5061350;28;20044;-67
2023/10/18 09:52:30;;;;;;;12.85;5.85;;;;;;;;;;5060181;28;20059;-68
2023/10/18 09:55:00;;;;;;;9.85;5.60;;;;;;;;;;5064717;28;20049;-66
2023/10/18 09:57:35;;;;;;;9.50;6.05;;;;;;;;;;5064112;28;20045;-66
2023/10/18 10:00:11;;;;;;;9.93;5.55;;;;;;;;;;5066240;28;20048;-66
2023/10/18 10:02:39;;;;;;;11.85;6.57;;;;;;;;;;5056946;28;20049;-67
2023/10/18 10:05:24;;;;;;;11.32;6.03;;;;;;;;;;5057088;28;20508;-66
2023/10/18 10:07:52;;;;;;;8.82;5.22;;;;;;;;;;5058280;28;20162;-66
2023/10/18 10:10:24;;;;;;;11.57;5.70;;;;;;;;;;5059315;28;20055;-66
2023/10/18 10:12:57;;;;;;;9.00;5.05;;;;;;;;;;5061466;28;20052;-66
2023/10/18 10:15:28;;;;;;;11.02;5.75;;;;;;;;;;5052557;28;20057;-67
2023/10/18 10:17:58;;;;;;;10.80;5.53;;;;;;;;;;5061147;28;20049;-67
2023/10/18 10:20:31;;;;;;;8.98;5.43;;;;;;;;;;5063752;28;20083;-67
2023/10/18 10:23:02;;;;;;;9.10;5.28;;;;;;;;;;5058242;28;20067;-67
2023/10/18 10:25:32;;;;;;;8.93;5.38;;;;;;;;;;5065604;28;20062;-67
2023/10/18 10:28:01;;;;;;;9.32;5.00;;;;;;;;;;5057447;28;20043;-67
2023/10/18 10:30:35;;;;;;;9.65;4.82;;;;;;;;;;5057123;28;20443;-67
2023/10/18 10:33:05;;;;;;;8.77;5.10;;;;;;;;;;5067031;28;20056;-66
2023/10/18 10:35:35;;;;;;;8.02;5.30;;;;;;;;;;5059592;28;20455;-66
2023/10/18 10:38:09;;;;;;;9.15;5.35;;;;;;;;;;5063942;28;20055;-67
2023/10/18 10:40:43;;;;;;;9.05;5.45;;;;;;;;;;5058116;28;20493;-66
2023/10/18 10:43:12;;;;;;;8.68;4.88;;;;;;;;;;5054575;28;20045;-69
2023/10/18 10:45:43;;;;;;;9.65;5.40;;;;;;;;;;5067216;28;20052;-69
2023/10/18 10:48:30;;;;;;;7.82;4.40;;;;;;;;;;5059096;28;20041;-69
2023/10/18 10:51:20;;;;;;;7.15;4.60;;;;;;;;;;5055961;28;20128;-68
2023/10/18 10:53:54;;;;;;;6.55;4.20;;;;;;;;;;5061882;28;20485;-69
2023/10/18 10:56:23;;;;;;;10.35;4.57;;;;;;;;;;5057223;28;20045;-69
2023/10/18 10:59:03;;;;;;;8.80;4.03;;;;;;;;;;5062388;28;20056;-69
2023/10/18 11:01:57;;;;;;;15.10;4.60;;;;;;;;;;5059330;28;20056;-69
2023/10/18 11:04:46;;;;;;;8.98;4.38;;;;;;;;;;5056767;28;20512;-68
2023/10/18 11:07:21;;;;;;;7.57;4.53;;;;;;;;;;5052845;28;20067;-69
2023/10/18 11:09:48;;;;;;;12.38;4.70;;;;;;;;;;5065229;28;20525;-69
2023/10/18 11:12:17;;;;;;;7.57;4.50;;;;;;;;;;5057417;28;20113;-69
2023/10/18 11:14:50;;;;;;;7.95;4.53;;;;;;;;;;5062194;28;20373;-68
2023/10/18 11:17:18;;;;;;;11.40;4.22;;;;;;;;;;5057900;28;20127;-69
2023/10/18 11:19:51;;;;;;;11.70;5.00;;;;;;;;;;5064836;28;20056;-69
2023/10/18 11:22:21;;;;;;;8.82;4.60;;;;;;;;;;5056203;28;20057;-69
2023/10/18 11:24:50;;;;;;;8.13;4.70;;;;;;;;;;5060563;28;20521;-69
2023/10/18 11:27:18;;;;;;;11.75;5.03;;;;;;;;;;5058158;28;20048;-69
2023/10/18 11:29:46;;;;;;;10.27;4.40;;;;;;;;;;5057003;28;20495;-68
2023/10/18 11:32:18;;;;;;;9.73;4.78;;;;;;;;;;5057158;28;20049;-68
2023/10/18 11:34:45;;;;;;;7.03;4.50;;;;;;;;;;5059749;28;20088;-69
2023/10/18 11:37:26;;;;;;;6.95;4.35;;;;;;;;;;5062296;28;20102;-68
2023/10/18 11:39:56;;;;;;;9.55;4.25;;;;;;;;;;5060596;28;20048;-68
2023/10/18 11:42:23;;;;;;;7.00;4.50;;;;;;;;;;5055393;28;20044;-68
2023/10/18 11:44:54;;;;;;;8.18;4.25;;;;;;;;;;5058510;28;20055;-68
2023/10/18 11:47:22;;;;;;;6.20;4.05;;;;;;;;;;5059703;28;20040;-68
2023/10/18 11:49:53;;;;;;;8.98;4.53;;;;;;;;;;5053208;28;20051;-69
2023/10/18 11:52:22;;;;;;;9.15;5.07;;;;;;;;;;5059879;28;20056;-68
2023/10/18 11:54:52;;;;;;;9.75;4.38;;;;;;;;;;5055714;28;20075;-69
2023/10/18 11:57:30;;;;;;;8.38;4.85;;;;;;;;;;5058572;28;20484;-69
2023/10/18 12:00:18;;;;;;;7.90;4.47;;;;;;;;;;5053542;28;20471;-68
2023/10/18 12:02:45;;;;;;;8.52;4.65;;;;;;;;;;5058391;28;20536;-69
2023/10/18 12:05:15;;;;;;;8.75;5.10;;;;;;;;;;5058293;28;20057;-68
2023/10/18 12:07:45;;;;;;;12.52;4.85;;;;;;;;;;5055522;28;20492;-68
2023/10/18 12:10:25;;;;;;;8.38;4.82;;;;;;;;;;5059230;28;20053;-68
2023/10/18 12:12:55;;;;;;;11.30;4.75;;;;;;;;;;5059903;28;20133;-68
2023/10/18 12:15:25;;;;;;;7.22;4.38;;;;;;;;;;5058008;28;20500;-69
2023/10/18 12:17:53;;;;;;;9.38;4.95;;;;;;;;;;5063496;28;20044;-69
2023/10/18 12:20:25;;;;;;;9.38;4.95;;;;;;;;;;5056383;28;20565;-68
2023/10/18 12:22:53;;;;;;;8.25;4.80;;;;;;;;;;5064557;28;20120;-68
2023/10/18 12:25:20;;;;;;;7.47;4.75;;;;;;;;;;5065322;28;20048;-68
2023/10/18 12:27:52;;;;;;;6.70;4.47;;;;;;;;;;5062601;28;20409;-68
2023/10/18 12:30:31;;;;;;;8.13;4.45;;;;;;;;;;5057184;28;20569;-68
2023/10/18 12:33:02;;;;;;;9.45;4.40;;;;;;;;;;5053006;28;20246;-68
2023/10/18 12:35:29;;;;;;;8.43;4.60;;;;;;;;;;5055265;28;20056;-69
2023/10/18 12:37:57;;;;;;;8.02;3.85;;;;;;;;;;5065628;28;20121;-69
2023/10/18 12:40:30;;;;;;;6.97;4.18;;;;;;;;;;5067025;28;20066;-68
2023/10/18 12:43:00;;;;;;;8.15;4.43;;;;;;;;;;5060962;28;20055;-69
2023/10/18 12:45:29;;;;;;;8.55;4.50;;;;;;;;;;5060205;28;20056;-68
2023/10/18 12:48:05;;;;;;;7.43;4.28;;;;;;;;;;5053573;28;20064;-68
2023/10/18 12:50:36;;;;;;;6.93;4.35;;;;;;;;;;5065742;28;20044;-68
2023/10/18 12:53:17;;;;;;;7.63;4.65;;;;;;;;;;5060622;28;20515;-68
2023/10/18 12:55:46;;;;;;;8.88;4.20;;;;;;;;;;5063350;28;20526;-68
2023/10/18 12:58:18;;;;;;;7.72;4.53;;;;;;;;;;5059214;28;20042;-68
2023/10/18 13:00:53;;;;;;;7.65;4.57;;;;;;;;;;5059051;28;20072;-68
2023/10/18 13:03:23;;;;;;;8.38;4.82;;;;;;;;;;5061114;28;20059;-68
2023/10/18 13:05:53;;;;;;;9.15;4.40;;;;;;;;;;5060147;28;20513;-69
2023/10/18 13:08:26;;;;;;;10.43;4.22;;;;;;;;;;5063450;28;20084;-68
2023/10/18 13:11:44;;;;;;;10.70;4.40;;;;;;;;;;5057236;28;20051;-68
2023/10/18 13:13:49;;;;;;;7.15;4.55;;;;;;;;;;5056223;28;20510;-68
2023/10/18 13:16:17;;;;;;;7.63;4.40;;;;;;;;;;5058571;28;20051;-68
2023/10/18 13:18:47;;;;;;;9.70;4.30;;;;;;;;;;5057833;28;20045;-68
2023/10/18 13:21:16;;;;;;;9.20;4.25;;;;;;;;;;5062917;28;20131;-69
2023/10/18 13:23:46;;;;;;;7.00;3.88;;;;;;;;;;5060175;28;20045;-68
2023/10/18 13:26:18;;;;;;;7.72;3.78;;;;;;;;;;5064126;28;20045;-69
2023/10/18 13:28:51;;;;;;;9.57;4.10;;;;;;;;;;5064294;28;20124;-69
2023/10/18 13:31:22;;;;;;;7.47;3.80;;;;;;;;;;5061990;28;20048;-69
2023/10/18 13:33:53;;;;;;;7.10;4.05;;;;;;;;;;5061647;28;20056;-68
2023/10/18 13:36:21;;;;;;;7.43;4.00;;;;;;;;;;5057572;28;20044;-68
2023/10/18 13:38:50;;;;;;;11.10;4.53;;;;;;;;;;5054945;28;20053;-68
2023/10/18 13:41:17;;;;;;;7.75;4.07;;;;;;;;;;5059489;28;20198;-68
2023/10/18 13:43:44;;;;;;;9.15;3.80;;;;;;;;;;5063753;28;20661;-68
2023/10/18 13:46:18;;;;;;;10.02;4.15;;;;;;;;;;5057364;28;20064;-68
2023/10/18 13:48:49;;;;;;;6.70;3.85;;;;;;;;;;5054945;28;20049;-68
2023/10/18 13:51:17;;;;;;;9.55;4.45;;;;;;;;;;5054664;28;20107;-69
2023/10/18 13:53:45;;;;;;;7.13;4.38;;;;;;;;;;5053878;28;20059;-67
2023/10/18 13:56:13;;;;;;;7.03;4.05;;;;;;;;;;5059657;28;20098;-68
2023/10/18 13:58:40;;;;;;;8.95;4.15;;;;;;;;;;5064910;28;20064;-68
2023/10/18 14:01:14;;;;;;;7.57;4.65;;;;;;;;;;5059198;28;20049;-69
2023/10/18 14:03:43;;;;;;;7.50;4.55;;;;;;;;;;5057146;28;20132;-69
2023/10/18 14:06:14;;;;;;;8.05;4.80;;;;;;;;;;5057826;28;20045;-68
2023/10/18 14:08:43;;;;;;;9.05;4.80;;;;;;;;;;5058305;28;20041;-69
2023/10/18 14:11:12;;;;;;;9.65;4.32;;;;;;;;;;5057307;28;20049;-68
2023/10/18 14:13:40;;;;;;;8.30;4.50;;;;;;;;;;5057537;28;20053;-68
2023/10/18 14:16:11;;;;;;;10.00;4.57;;;;;;;;;;5056723;28;20546;-69
2023/10/18 14:18:40;;;;;;;10.25;4.57;;;;;;;;;;5062921;28;20043;-69
2023/10/18 14:21:12;;;;;;;11.25;4.20;;;;;;;;;;5055909;28;20393;-68
2023/10/18 14:23:41;;;;;;;7.53;4.25;;;;;;;;;;5065102;28;20057;-68
2023/10/18 14:26:08;;;;;;;7.80;4.32;;;;;;;;;;5065922;28;20074;-68
2023/10/18 14:28:36;;;;;;;9.25;4.30;;;;;;;;;;5058695;28;20056;-69
2023/10/18 14:31:03;;;;;;;10.27;4.50;;;;;;;;;;5062229;28;20060;-68
2023/10/18 14:33:31;;;;;;;8.60;4.38;;;;;;;;;;5063148;28;20048;-68
2023/10/18 14:36:06;;;;;;;8.07;4.72;;;;;;;;;;5063038;28;20401;-68
2023/10/18 14:38:34;;;;;;;7.05;4.43;;;;;;;;;;5059962;28;20052;-68
2023/10/18 14:41:03;;;;;;;7.53;3.92;;;;;;;;;;5058120;28;20189;-67
2023/10/18 14:43:30;;;;;;;9.40;4.40;;;;;;;;;;5053128;28;20055;-68
2023/10/18 14:46:00;;;;;;;8.45;4.15;;;;;;;;;;5060115;28;20045;-68
2023/10/18 14:48:27;;;;;;;8.65;4.60;;;;;;;;;;5055954;28;20056;-69
2023/10/18 14:50:54;;;;;;;7.15;4.25;;;;;;;;;;5062296;28;20049;-67
2023/10/18 14:53:22;;;;;;;8.38;4.40;;;;;;;;;;5068229;28;20049;-68
2023/10/18 14:55:49;;;;;;;9.23;4.45;;;;;;;;;;5062395;28;20055;-68
2023/10/18 14:58:17;;;;;;;7.88;4.60;;;;;;;;;;5055936;28;20048;-69
2023/10/18 15:00:47;;;;;;;8.48;4.40;;;;;;;;;;5056181;28;20060;-68
2023/10/18 15:03:15;;;;;;;11.32;4.03;;;;;;;;;;5059286;28;20124;-68
2023/10/18 15:05:43;;;;;;;8.88;4.57;;;;;;;;;;5063980;28;20488;-68
2023/10/18 15:08:12;;;;;;;7.28;3.80;;;;;;;;;;5065992;28;20048;-69